sensor_id;sensor_type;location;lat;lon;timestamp;pressure;altitude;pressure_sealevel;temperature;humidity
63033;BME280;49121;38.932;-9.018;2023-01-27T00:00:58;111992.50;;;-145.11;83.83
63033;BME280;49121;38.932;-9.018;2023-01-27T00:05:18;111992.50;;;-145.11;83.84
63033;BME280;49121;38.932;-9.018;2023-01-27T00:07:19;111992.50;;;-145.11;82.50
63033;BME280;49121;38.932;-9.018;2023-01-27T00:09:20;111992.50;;;-145.11;81.85
63033;BME280;49121;38.932;-9.018;2023-01-27T00:11:20;111992.50;;;-145.11;81.86
63033;BME280;49121;38.932;-9.018;2023-01-27T00:15:59;111992.50;;;-145.11;82.15
63033;BME280;49121;38.932;-9.018;2023-01-27T00:20:19;111992.50;;;-145.11;81.84
63033;BME280;49121;38.932;-9.018;2023-01-27T00:22:40;111992.50;;;-145.11;81.65
63033;BME280;49121;38.932;-9.018;2023-01-27T00:27:36;111992.50;;;-145.11;80.16
63033;BME280;49121;38.932;-9.018;2023-01-27T00:29:38;111992.50;;;-145.11;79.86
63033;BME280;49121;38.932;-9.018;2023-01-27T00:31:39;111992.50;;;-145.11;78.89
63033;BME280;49121;38.932;-9.018;2023-01-27T00:33:59;111992.50;;;-145.11;77.53
63033;BME280;49121;38.932;-9.018;2023-01-27T00:36:05;111992.50;;;-145.11;77.19
63033;BME280;49121;38.932;-9.018;2023-01-27T00:38:11;111992.50;;;-145.11;77.06
63033;BME280;49121;38.932;-9.018;2023-01-27T00:40:14;111992.50;;;-145.11;76.84
63033;BME280;49121;38.932;-9.018;2023-01-27T00:42:15;111992.50;;;-145.11;76.82
63033;BME280;49121;38.932;-9.018;2023-01-27T00:44:16;111992.50;;;-145.11;76.23
63033;BME280;49121;38.932;-9.018;2023-01-27T00:46:17;111992.50;;;-145.11;76.71
63033;BME280;49121;38.932;-9.018;2023-01-27T00:48:18;111992.50;;;-145.11;76.92
63033;BME280;49121;38.932;-9.018;2023-01-27T00:50:19;111992.50;;;-145.11;76.90
63033;BME280;49121;38.932;-9.018;2023-01-27T00:52:20;111992.50;;;-145.11;76.59
63033;BME280;49121;38.932;-9.018;2023-01-27T00:54:21;111992.50;;;-145.11;75.67
63033;BME280;49121;38.932;-9.018;2023-01-27T00:56:40;111992.50;;;-145.11;74.92
63033;BME280;49121;38.932;-9.018;2023-01-27T00:58:41;111992.50;;;-145.11;75.04
63033;BME280;49121;38.932;-9.018;2023-01-27T01:01:01;111992.50;;;-145.11;75.11
63033;BME280;49121;38.932;-9.018;2023-01-27T01:08:40;111992.50;;;-145.11;73.83
63033;BME280;49121;38.932;-9.018;2023-01-27T01:10:43;111992.50;;;-145.11;74.06
63033;BME280;49121;38.932;-9.018;2023-01-27T01:12:44;111992.50;;;-145.11;73.76
63033;BME280;49121;38.932;-9.018;2023-01-27T01:14:45;111992.50;;;-145.11;73.48
63033;BME280;49121;38.932;-9.018;2023-01-27T01:19:24;111992.50;;;-145.11;73.28
63033;BME280;49121;38.932;-9.018;2023-01-27T01:21:25;111992.50;;;-145.11;73.30
63033;BME280;49121;38.932;-9.018;2023-01-27T01:25:54;111992.50;;;-145.11;73.72
63033;BME280;49121;38.932;-9.018;2023-01-27T01:27:55;111992.50;;;-145.11;73.79
63033;BME280;49121;38.932;-9.018;2023-01-27T01:29:56;111992.50;;;-145.11;73.98
63033;BME280;49121;38.932;-9.018;2023-01-27T01:31:56;111992.50;;;-145.11;74.21
63033;BME280;49121;38.932;-9.018;2023-01-27T01:33:57;111992.50;;;-145.11;74.49
63033;BME280;49121;38.932;-9.018;2023-01-27T01:36:09;111992.50;;;-145.11;74.77
63033;BME280;49121;38.932;-9.018;2023-01-27T01:38:10;111992.50;;;-145.11;75.01
63033;BME280;49121;38.932;-9.018;2023-01-27T01:40:12;111992.50;;;-145.11;75.02
63033;BME280;49121;38.932;-9.018;2023-01-27T01:42:17;111992.50;;;-145.11;74.54
63033;BME280;49121;38.932;-9.018;2023-01-27T01:44:23;111992.50;;;-145.11;74.46
63033;BME280;49121;38.932;-9.018;2023-01-27T01:46:24;111992.50;;;-145.11;74.42
63033;BME280;49121;38.932;-9.018;2023-01-27T01:48:32;111992.50;;;-145.11;74.00
63033;BME280;49121;38.932;-9.018;2023-01-27T01:50:35;111992.50;;;-145.11;73.72
63033;BME280;49121;38.932;-9.018;2023-01-27T01:52:37;111992.50;;;-145.11;73.51
63033;BME280;49121;38.932;-9.018;2023-01-27T01:57:23;111992.50;;;-145.11;73.21
63033;BME280;49121;38.932;-9.018;2023-01-27T01:59:33;111992.50;;;-145.11;73.29
63033;BME280;49121;38.932;-9.018;2023-01-27T02:01:35;111992.50;;;-145.11;73.51
63033;BME280;49121;38.932;-9.018;2023-01-27T02:03:39;111992.50;;;-145.11;73.55
63033;BME280;49121;38.932;-9.018;2023-01-27T02:05:43;111992.50;;;-145.11;73.52
63033;BME280;49121;38.932;-9.018;2023-01-27T02:07:52;111992.50;;;-145.11;73.25
63033;BME280;49121;38.932;-9.018;2023-01-27T02:15:13;111992.50;;;-145.11;73.08
63033;BME280;49121;38.932;-9.018;2023-01-27T02:27:15;111992.50;;;-145.11;73.07
63033;BME280;49121;38.932;-9.018;2023-01-27T02:29:19;111992.50;;;-145.11;72.56
63033;BME280;49121;38.932;-9.018;2023-01-27T02:31:40;111992.50;;;-145.11;71.90
63033;BME280;49121;38.932;-9.018;2023-01-27T02:33:41;111992.50;;;-145.11;71.91
63033;BME280;49121;38.932;-9.018;2023-01-27T02:35:50;111992.50;;;-145.11;72.22
63033;BME280;49121;38.932;-9.018;2023-01-27T02:38:10;111992.50;;;-145.11;71.70
63033;BME280;49121;38.932;-9.018;2023-01-27T02:40:13;111992.50;;;-145.11;71.62
63033;BME280;49121;38.932;-9.018;2023-01-27T02:42:16;111992.50;;;-145.11;71.81
63033;BME280;49121;38.932;-9.018;2023-01-27T02:44:17;111992.50;;;-145.11;71.65
63033;BME280;49121;38.932;-9.018;2023-01-27T02:48:56;111992.50;;;-145.11;71.18
63033;BME280;49121;38.932;-9.018;2023-01-27T02:50:57;111992.50;;;-145.11;71.11
63033;BME280;49121;38.932;-9.018;2023-01-27T02:53:05;111992.50;;;-145.11;70.97
63033;BME280;49121;38.932;-9.018;2023-01-27T02:55:25;111992.50;;;-145.11;71.27
63033;BME280;49121;38.932;-9.018;2023-01-27T02:57:26;111992.50;;;-145.11;70.85
63033;BME280;49121;38.932;-9.018;2023-01-27T03:04:59;111992.50;;;-145.11;71.44
63033;BME280;49121;38.932;-9.018;2023-01-27T03:14:16;111992.50;;;-145.11;69.82
63033;BME280;49121;38.932;-9.018;2023-01-27T03:16:35;111992.50;;;-145.11;69.17
63033;BME280;49121;38.932;-9.018;2023-01-27T03:29:40;111992.50;;;-145.11;70.17
63033;BME280;49121;38.932;-9.018;2023-01-27T03:31:56;111992.50;;;-145.11;70.50
63033;BME280;49121;38.932;-9.018;2023-01-27T03:33:56;111992.50;;;-145.11;70.88
63033;BME280;49121;38.932;-9.018;2023-01-27T03:36:04;111992.50;;;-145.11;71.11
63033;BME280;49121;38.932;-9.018;2023-01-27T03:38:41;111992.50;;;-145.11;70.27
63033;BME280;49121;38.932;-9.018;2023-01-27T03:41:02;111992.50;;;-145.11;69.30
63033;BME280;49121;38.932;-9.018;2023-01-27T03:43:22;111992.50;;;-145.11;69.38
63033;BME280;49121;38.932;-9.018;2023-01-27T03:46:00;111992.50;;;-145.11;69.47
63033;BME280;49121;38.932;-9.018;2023-01-27T03:48:24;111992.50;;;-145.11;69.74
63033;BME280;49121;38.932;-9.018;2023-01-27T03:50:28;111992.50;;;-145.11;69.33
63033;BME280;49121;38.932;-9.018;2023-01-27T03:52:36;111992.50;;;-145.11;69.30
63033;BME280;49121;38.932;-9.018;2023-01-27T03:54:37;111992.50;;;-145.11;69.39
63033;BME280;49121;38.932;-9.018;2023-01-27T03:56:41;111992.50;;;-145.11;69.34
63033;BME280;49121;38.932;-9.018;2023-01-27T03:58:42;111992.50;;;-145.11;69.48
63033;BME280;49121;38.932;-9.018;2023-01-27T04:01:06;111992.50;;;-145.11;69.71
63033;BME280;49121;38.932;-9.018;2023-01-27T04:03:04;111992.50;;;-145.11;70.05
63033;BME280;49121;38.932;-9.018;2023-01-27T04:05:24;111992.50;;;-145.11;70.58
63033;BME280;49121;38.932;-9.018;2023-01-27T04:10:05;111992.50;;;-145.11;70.54
63033;BME280;49121;38.932;-9.018;2023-01-27T04:12:08;111992.50;;;-145.11;70.26
63033;BME280;49121;38.932;-9.018;2023-01-27T04:14:10;111992.50;;;-145.11;70.27
63033;BME280;49121;38.932;-9.018;2023-01-27T04:19:27;111992.50;;;-145.11;72.41
63033;BME280;49121;38.932;-9.018;2023-01-27T04:21:28;111992.50;;;-145.11;73.16
63033;BME280;49121;38.932;-9.018;2023-01-27T04:23:29;111992.50;;;-145.11;73.40
63033;BME280;49121;38.932;-9.018;2023-01-27T04:25:29;111992.50;;;-145.11;73.78
63033;BME280;49121;38.932;-9.018;2023-01-27T04:27:30;111992.50;;;-145.11;73.65
63033;BME280;49121;38.932;-9.018;2023-01-27T04:29:33;111992.50;;;-145.11;73.68
63033;BME280;49121;38.932;-9.018;2023-01-27T04:31:38;111992.50;;;-145.11;73.59
63033;BME280;49121;38.932;-9.018;2023-01-27T04:34:16;111992.50;;;-145.11;73.92
63033;BME280;49121;38.932;-9.018;2023-01-27T04:38:55;111992.50;;;-145.11;74.68
63033;BME280;49121;38.932;-9.018;2023-01-27T04:40:56;111992.50;;;-145.11;75.66
63033;BME280;49121;38.932;-9.018;2023-01-27T04:42:56;111992.50;;;-145.11;75.93
63033;BME280;49121;38.932;-9.018;2023-01-27T04:47:54;111992.50;;;-145.11;77.48
63033;BME280;49121;38.932;-9.018;2023-01-27T04:59:32;111992.50;;;-145.11;77.37
63033;BME280;49121;38.932;-9.018;2023-01-27T05:01:32;111992.50;;;-145.11;77.68
63033;BME280;49121;38.932;-9.018;2023-01-27T05:03:33;111992.50;;;-145.11;78.17
63033;BME280;49121;38.932;-9.018;2023-01-27T05:05:53;111992.50;;;-145.11;78.26
63033;BME280;49121;38.932;-9.018;2023-01-27T05:10:31;111992.50;;;-145.11;77.14
63033;BME280;49121;38.932;-9.018;2023-01-27T05:12:32;111992.50;;;-145.11;76.23
63033;BME280;49121;38.932;-9.018;2023-01-27T05:14:34;111992.50;;;-145.11;75.55
63033;BME280;49121;38.932;-9.018;2023-01-27T05:16:37;111992.50;;;-145.11;75.22
63033;BME280;49121;38.932;-9.018;2023-01-27T05:18:38;111992.50;;;-145.11;75.37
63033;BME280;49121;38.932;-9.018;2023-01-27T05:20:40;111992.50;;;-145.11;75.73
63033;BME280;49121;38.932;-9.018;2023-01-27T05:25:40;111992.50;;;-145.11;77.28
63033;BME280;49121;38.932;-9.018;2023-01-27T05:27:59;111992.50;;;-145.11;77.79
63033;BME280;49121;38.932;-9.018;2023-01-27T05:30:00;111992.50;;;-145.11;78.04
63033;BME280;49121;38.932;-9.018;2023-01-27T05:32:19;111992.50;;;-145.11;78.11
63033;BME280;49121;38.932;-9.018;2023-01-27T05:34:20;111992.50;;;-145.11;78.73
63033;BME280;49121;38.932;-9.018;2023-01-27T05:36:22;111992.50;;;-145.11;79.14
63033;BME280;49121;38.932;-9.018;2023-01-27T05:38:23;111992.50;;;-145.11;79.48
63033;BME280;49121;38.932;-9.018;2023-01-27T05:40:23;111992.50;;;-145.11;79.30
63033;BME280;49121;38.932;-9.018;2023-01-27T05:42:24;111992.50;;;-145.11;79.58
63033;BME280;49121;38.932;-9.018;2023-01-27T05:44:24;111992.50;;;-145.11;79.76
63033;BME280;49121;38.932;-9.018;2023-01-27T05:46:27;111992.50;;;-145.11;79.27
63033;BME280;49121;38.932;-9.018;2023-01-27T05:53:26;111992.50;;;-145.11;78.81
63033;BME280;49121;38.932;-9.018;2023-01-27T05:55:34;111992.50;;;-145.11;79.44
63033;BME280;49121;38.932;-9.018;2023-01-27T05:57:35;111992.50;;;-145.11;79.21
63033;BME280;49121;38.932;-9.018;2023-01-27T05:59:35;111992.50;;;-145.11;79.33
63033;BME280;49121;38.932;-9.018;2023-01-27T06:01:36;111992.50;;;-145.11;79.16
63033;BME280;49121;38.932;-9.018;2023-01-27T06:06:19;111992.50;;;-145.11;78.22
63033;BME280;49121;38.932;-9.018;2023-01-27T06:08:39;111992.50;;;-145.11;77.96
63033;BME280;49121;38.932;-9.018;2023-01-27T06:13:37;111992.50;;;-145.11;77.78
63033;BME280;49121;38.932;-9.018;2023-01-27T06:18:38;111992.50;;;-145.11;79.11
63033;BME280;49121;38.932;-9.018;2023-01-27T06:25:18;111992.50;;;-145.11;80.06
63033;BME280;49121;38.932;-9.018;2023-01-27T06:27:36;111992.50;;;-145.11;80.17
63033;BME280;49121;38.932;-9.018;2023-01-27T06:29:37;111992.50;;;-145.11;80.17
63033;BME280;49121;38.932;-9.018;2023-01-27T06:31:38;111992.50;;;-145.11;78.99
63033;BME280;49121;38.932;-9.018;2023-01-27T06:33:38;111992.50;;;-145.11;78.74
63033;BME280;49121;38.932;-9.018;2023-01-27T06:35:39;111992.50;;;-145.11;79.13
63033;BME280;49121;38.932;-9.018;2023-01-27T06:37:40;111992.50;;;-145.11;79.73
63033;BME280;49121;38.932;-9.018;2023-01-27T06:39:41;111992.50;;;-145.11;79.71
63033;BME280;49121;38.932;-9.018;2023-01-27T06:41:41;111992.50;;;-145.11;79.98
63033;BME280;49121;38.932;-9.018;2023-01-27T06:43:44;111992.50;;;-145.11;80.43
63033;BME280;49121;38.932;-9.018;2023-01-27T06:45:49;111992.50;;;-145.11;80.06
63033;BME280;49121;38.932;-9.018;2023-01-27T06:47:57;111992.50;;;-145.11;79.58
63033;BME280;49121;38.932;-9.018;2023-01-27T06:49:58;111992.50;;;-145.11;79.78
63033;BME280;49121;38.932;-9.018;2023-01-27T06:57:52;111992.50;;;-145.11;80.63
63033;BME280;49121;38.932;-9.018;2023-01-27T06:59:52;111992.50;;;-145.11;80.18
63033;BME280;49121;38.932;-9.018;2023-01-27T07:02:12;111992.50;;;-145.11;79.84
63033;BME280;49121;38.932;-9.018;2023-01-27T07:04:13;111992.50;;;-145.11;80.23
63033;BME280;49121;38.932;-9.018;2023-01-27T07:11:11;111992.50;;;-145.11;80.04
63033;BME280;49121;38.932;-9.018;2023-01-27T07:13:12;111992.50;;;-145.11;80.07
63033;BME280;49121;38.932;-9.018;2023-01-27T07:15:13;111992.50;;;-145.11;79.57
63033;BME280;49121;38.932;-9.018;2023-01-27T07:17:14;111992.50;;;-145.11;79.62
63033;BME280;49121;38.932;-9.018;2023-01-27T07:19:15;111992.50;;;-145.11;79.40
63033;BME280;49121;38.932;-9.018;2023-01-27T07:21:16;111992.50;;;-145.11;78.14
63033;BME280;49121;38.932;-9.018;2023-01-27T07:23:16;111992.50;;;-145.11;77.62
63033;BME280;49121;38.932;-9.018;2023-01-27T07:25:17;111992.50;;;-145.11;76.96
63033;BME280;49121;38.932;-9.018;2023-01-27T07:27:17;111992.50;;;-145.11;76.73
63033;BME280;49121;38.932;-9.018;2023-01-27T07:29:18;111992.50;;;-145.11;77.04
63033;BME280;49121;38.932;-9.018;2023-01-27T07:31:38;111992.50;;;-145.11;77.64
63033;BME280;49121;38.932;-9.018;2023-01-27T07:44:20;111992.50;;;-145.11;79.17
63033;BME280;49121;38.932;-9.018;2023-01-27T07:46:21;111992.50;;;-145.11;77.97
63033;BME280;49121;38.932;-9.018;2023-01-27T07:48:22;111992.50;;;-145.11;77.79
63033;BME280;49121;38.932;-9.018;2023-01-27T07:50:22;111992.50;;;-145.11;77.45
63033;BME280;49121;38.932;-9.018;2023-01-27T07:52:23;111992.50;;;-145.11;76.87
63033;BME280;49121;38.932;-9.018;2023-01-27T07:54:45;111992.50;;;-145.11;76.36
63033;BME280;49121;38.932;-9.018;2023-01-27T07:56:46;111992.50;;;-145.11;76.29
63033;BME280;49121;38.932;-9.018;2023-01-27T07:58:47;111992.50;;;-145.11;76.03
63033;BME280;49121;38.932;-9.018;2023-01-27T08:00:47;111992.50;;;-145.11;75.74
63033;BME280;49121;38.932;-9.018;2023-01-27T08:02:52;111992.50;;;-145.11;75.59
63033;BME280;49121;38.932;-9.018;2023-01-27T08:04:53;111992.50;;;-145.11;75.53
63033;BME280;49121;38.932;-9.018;2023-01-27T08:06:54;111992.50;;;-145.11;75.99
63033;BME280;49121;38.932;-9.018;2023-01-27T08:08:55;111992.50;;;-145.11;76.40
63033;BME280;49121;38.932;-9.018;2023-01-27T08:10:59;111992.50;;;-145.11;76.18
63033;BME280;49121;38.932;-9.018;2023-01-27T08:13:14;111992.50;;;-145.11;76.84
63033;BME280;49121;38.932;-9.018;2023-01-27T08:15:18;111992.50;;;-145.11;77.28
63033;BME280;49121;38.932;-9.018;2023-01-27T08:17:34;111992.50;;;-145.11;77.54
63033;BME280;49121;38.932;-9.018;2023-01-27T08:22:21;111992.50;;;-145.11;77.64
63033;BME280;49121;38.932;-9.018;2023-01-27T08:24:58;111992.50;;;-145.11;77.12
63033;BME280;49121;38.932;-9.018;2023-01-27T08:27:12;111992.50;;;-145.11;76.73
63033;BME280;49121;38.932;-9.018;2023-01-27T08:29:13;111992.50;;;-145.11;75.95
63033;BME280;49121;38.932;-9.018;2023-01-27T08:31:15;111992.50;;;-145.11;74.49
63033;BME280;49121;38.932;-9.018;2023-01-27T08:33:25;111992.50;;;-145.11;73.01
63033;BME280;49121;38.932;-9.018;2023-01-27T08:35:27;111992.50;;;-145.11;71.82
63033;BME280;49121;38.932;-9.018;2023-01-27T08:37:27;111992.50;;;-145.11;71.62
63033;BME280;49121;38.932;-9.018;2023-01-27T08:39:29;111992.50;;;-145.11;71.26
63033;BME280;49121;38.932;-9.018;2023-01-27T08:41:42;111992.50;;;-145.11;70.66
63033;BME280;49121;38.932;-9.018;2023-01-27T08:43:44;111992.50;;;-145.11;70.44
63033;BME280;49121;38.932;-9.018;2023-01-27T08:45:46;111992.50;;;-145.11;69.27
63033;BME280;49121;38.932;-9.018;2023-01-27T08:47:47;111992.50;;;-145.11;69.33
63033;BME280;49121;38.932;-9.018;2023-01-27T08:49:47;111992.50;;;-145.11;68.87
63033;BME280;49121;38.932;-9.018;2023-01-27T08:51:51;111992.50;;;-145.11;68.02
63033;BME280;49121;38.932;-9.018;2023-01-27T08:53:55;111992.50;;;-145.11;67.13
63033;BME280;49121;38.932;-9.018;2023-01-27T08:55:57;111992.50;;;-145.11;67.45
63033;BME280;49121;38.932;-9.018;2023-01-27T08:57:58;111992.50;;;-145.11;67.69
63033;BME280;49121;38.932;-9.018;2023-01-27T08:59:59;111992.50;;;-145.11;68.02
63033;BME280;49121;38.932;-9.018;2023-01-27T09:02:01;111992.50;;;-145.11;67.48
63033;BME280;49121;38.932;-9.018;2023-01-27T09:06:46;111992.50;;;-145.11;67.71
63033;BME280;49121;38.932;-9.018;2023-01-27T09:08:47;111992.50;;;-145.11;67.09
63033;BME280;49121;38.932;-9.018;2023-01-27T09:11:16;111992.50;;;-145.11;66.18
63033;BME280;49121;38.932;-9.018;2023-01-27T09:13:18;111992.50;;;-145.11;66.16
63033;BME280;49121;38.932;-9.018;2023-01-27T09:15:24;111992.50;;;-145.11;65.63
63033;BME280;49121;38.932;-9.018;2023-01-27T09:20:05;111992.50;;;-145.11;64.63
63033;BME280;49121;38.932;-9.018;2023-01-27T09:22:06;111992.50;;;-145.11;64.40
63033;BME280;49121;38.932;-9.018;2023-01-27T09:24:07;111992.50;;;-145.11;64.32
63033;BME280;49121;38.932;-9.018;2023-01-27T09:26:11;111992.50;;;-145.11;64.19
63033;BME280;49121;38.932;-9.018;2023-01-27T09:28:32;111992.50;;;-145.11;64.21
63033;BME280;49121;38.932;-9.018;2023-01-27T09:30:34;111992.50;;;-145.11;63.72
63033;BME280;49121;38.932;-9.018;2023-01-27T09:32:35;111992.50;;;-145.11;63.65
63033;BME280;49121;38.932;-9.018;2023-01-27T09:34:36;111992.50;;;-145.11;63.99
63033;BME280;49121;38.932;-9.018;2023-01-27T09:36:41;111992.50;;;-145.11;63.56
63033;BME280;49121;38.932;-9.018;2023-01-27T09:38:53;111992.50;;;-145.11;63.30
63033;BME280;49121;38.932;-9.018;2023-01-27T09:50:43;111992.50;;;-145.11;63.22
63033;BME280;49121;38.932;-9.018;2023-01-27T10:05:08;111992.50;;;-145.11;62.39
63033;BME280;49121;38.932;-9.018;2023-01-27T10:21:17;111992.50;;;-145.11;57.99
63033;BME280;49121;38.932;-9.018;2023-01-27T10:23:36;111992.50;;;-145.11;57.09
63033;BME280;49121;38.932;-9.018;2023-01-27T10:26:06;111992.50;;;-145.11;56.55
63033;BME280;49121;38.932;-9.018;2023-01-27T10:28:21;111992.50;;;-145.11;56.70
63033;BME280;49121;38.932;-9.018;2023-01-27T10:30:35;111992.50;;;-145.11;56.87
63033;BME280;49121;38.932;-9.018;2023-01-27T10:32:54;111992.50;;;-145.11;57.08
63033;BME280;49121;38.932;-9.018;2023-01-27T10:35:08;111992.50;;;-145.11;56.56
63033;BME280;49121;38.932;-9.018;2023-01-27T10:39:53;111992.50;;;-145.11;54.24
63033;BME280;49121;38.932;-9.018;2023-01-27T10:49:09;111992.50;;;-145.11;53.79
63033;BME280;49121;38.932;-9.018;2023-01-27T10:51:25;111992.50;;;-145.11;53.43
63033;BME280;49121;38.932;-9.018;2023-01-27T10:53:56;111992.50;;;-145.11;51.36
63033;BME280;49121;38.932;-9.018;2023-01-27T10:56:11;111992.50;;;-145.11;51.98
63033;BME280;49121;38.932;-9.018;2023-01-27T10:58:30;111992.50;;;-145.11;52.49
63033;BME280;49121;38.932;-9.018;2023-01-27T11:00:44;111992.50;;;-145.11;52.73
63033;BME280;49121;38.932;-9.018;2023-01-27T11:10:41;111992.50;;;-145.11;47.78
63033;BME280;49121;38.932;-9.018;2023-01-27T11:13:10;111992.50;;;-145.11;48.04
63033;BME280;49121;38.932;-9.018;2023-01-27T11:15:30;111992.50;;;-145.11;47.11
63033;BME280;49121;38.932;-9.018;2023-01-27T11:17:37;111992.50;;;-145.11;47.10
63033;BME280;49121;38.932;-9.018;2023-01-27T11:25:16;111992.50;;;-145.11;50.00
63033;BME280;49121;38.932;-9.018;2023-01-27T11:27:51;111992.50;;;-145.11;48.86
63033;BME280;49121;38.932;-9.018;2023-01-27T11:30:02;111992.50;;;-145.11;48.68
63033;BME280;49121;38.932;-9.018;2023-01-27T11:35:02;111992.50;;;-145.11;49.88
63033;BME280;49121;38.932;-9.018;2023-01-27T11:37:21;111992.50;;;-145.11;50.70
63033;BME280;49121;38.932;-9.018;2023-01-27T11:39:30;111992.50;;;-145.11;50.54
63033;BME280;49121;38.932;-9.018;2023-01-27T11:41:36;111992.50;;;-145.11;49.35
63033;BME280;49121;38.932;-9.018;2023-01-27T11:43:39;111992.50;;;-145.11;48.94
63033;BME280;49121;38.932;-9.018;2023-01-27T11:45:49;111992.50;;;-145.11;49.31
63033;BME280;49121;38.932;-9.018;2023-01-27T11:50:31;111992.50;;;-145.11;45.71
63033;BME280;49121;38.932;-9.018;2023-01-27T11:52:33;111992.50;;;-145.11;45.61
63033;BME280;49121;38.932;-9.018;2023-01-27T11:54:43;111992.50;;;-145.11;45.20
63033;BME280;49121;38.932;-9.018;2023-01-27T11:56:50;111992.50;;;-145.11;45.94
63033;BME280;49121;38.932;-9.018;2023-01-27T11:59:12;111992.50;;;-145.11;47.31
63033;BME280;49121;38.932;-9.018;2023-01-27T12:01:18;111992.50;;;-145.11;46.75
63033;BME280;49121;38.932;-9.018;2023-01-27T12:03:26;111992.50;;;-145.11;46.74
63033;BME280;49121;38.932;-9.018;2023-01-27T12:05:42;111992.50;;;-145.11;45.70
63033;BME280;49121;38.932;-9.018;2023-01-27T12:07:56;111992.50;;;-145.11;46.74
63033;BME280;49121;38.932;-9.018;2023-01-27T12:12:36;111992.50;;;-145.11;45.40
63033;BME280;49121;38.932;-9.018;2023-01-27T12:14:38;111992.50;;;-145.11;45.98
63033;BME280;49121;38.932;-9.018;2023-01-27T12:16:46;111992.50;;;-145.11;45.30
63033;BME280;49121;38.932;-9.018;2023-01-27T12:19:00;111992.50;;;-145.11;45.33
63033;BME280;49121;38.932;-9.018;2023-01-27T12:21:05;111992.50;;;-145.11;45.06
63033;BME280;49121;38.932;-9.018;2023-01-27T12:28:49;111992.50;;;-145.11;45.01
63033;BME280;49121;38.932;-9.018;2023-01-27T12:30:55;111992.50;;;-145.11;44.62
63033;BME280;49121;38.932;-9.018;2023-01-27T12:32:57;111992.50;;;-145.11;45.16
63033;BME280;49121;38.932;-9.018;2023-01-27T12:35:01;111992.50;;;-145.11;45.23
63033;BME280;49121;38.932;-9.018;2023-01-27T12:37:04;111992.50;;;-145.11;45.53
63033;BME280;49121;38.932;-9.018;2023-01-27T12:42:46;111992.50;;;-145.11;45.08
63033;BME280;49121;38.932;-9.018;2023-01-27T12:45:30;111992.50;;;-145.11;43.69
63033;BME280;49121;38.932;-9.018;2023-01-27T12:47:38;111992.50;;;-145.11;43.13
63033;BME280;49121;38.932;-9.018;2023-01-27T12:49:38;111992.50;;;-145.11;44.68
63033;BME280;49121;38.932;-9.018;2023-01-27T12:51:43;111992.50;;;-145.11;44.77
63033;BME280;49121;38.932;-9.018;2023-01-27T12:53:50;111992.50;;;-145.11;44.61
63033;BME280;49121;38.932;-9.018;2023-01-27T12:56:29;111992.50;;;-145.11;44.04
63033;BME280;49121;38.932;-9.018;2023-01-27T12:58:43;111992.50;;;-145.11;44.61
63033;BME280;49121;38.932;-9.018;2023-01-27T13:00:45;111992.50;;;-145.11;44.86
63033;BME280;49121;38.932;-9.018;2023-01-27T13:02:49;111992.50;;;-145.11;44.91
63033;BME280;49121;38.932;-9.018;2023-01-27T13:05:04;111992.50;;;-145.11;44.75
63033;BME280;49121;38.932;-9.018;2023-01-27T13:07:13;111992.50;;;-145.11;44.33
63033;BME280;49121;38.932;-9.018;2023-01-27T13:09:44;111992.50;;;-145.11;44.85
63033;BME280;49121;38.932;-9.018;2023-01-27T13:11:53;111992.50;;;-145.11;45.64
63033;BME280;49121;38.932;-9.018;2023-01-27T13:13:56;111992.50;;;-145.11;46.36
63033;BME280;49121;38.932;-9.018;2023-01-27T13:16:15;111992.50;;;-145.11;45.19
63033;BME280;49121;38.932;-9.018;2023-01-27T13:18:19;111992.50;;;-145.11;46.03
63033;BME280;49121;38.932;-9.018;2023-01-27T13:20:31;111992.50;;;-145.11;45.53
63033;BME280;49121;38.932;-9.018;2023-01-27T13:25:34;111992.50;;;-145.11;45.81
63033;BME280;49121;38.932;-9.018;2023-01-27T13:27:48;111992.50;;;-145.11;44.82
63033;BME280;49121;38.932;-9.018;2023-01-27T13:30:08;111992.50;;;-145.11;44.46
63033;BME280;49121;38.932;-9.018;2023-01-27T13:32:23;111992.50;;;-145.11;45.75
63033;BME280;49121;38.932;-9.018;2023-01-27T13:35:03;111992.50;;;-145.11;45.87
63033;BME280;49121;38.932;-9.018;2023-01-27T13:39:55;111992.50;;;-145.11;45.84
63033;BME280;49121;38.932;-9.018;2023-01-27T13:44:19;111992.50;;;-145.11;46.32
63033;BME280;49121;38.932;-9.018;2023-01-27T13:46:30;111992.50;;;-145.11;47.07
63033;BME280;49121;38.932;-9.018;2023-01-27T13:48:41;111992.50;;;-145.11;46.24
63033;BME280;49121;38.932;-9.018;2023-01-27T13:50:52;111992.50;;;-145.11;46.30
63033;BME280;49121;38.932;-9.018;2023-01-27T13:52:58;111992.50;;;-145.11;46.48
63033;BME280;49121;38.932;-9.018;2023-01-27T13:54:59;111992.50;;;-145.11;47.38
63033;BME280;49121;38.932;-9.018;2023-01-27T13:59:39;111992.50;;;-145.11;47.17
63033;BME280;49121;38.932;-9.018;2023-01-27T14:04:25;111992.50;;;-145.11;48.29
63033;BME280;49121;38.932;-9.018;2023-01-27T14:11:18;111992.50;;;-145.11;49.68
63033;BME280;49121;38.932;-9.018;2023-01-27T14:18:03;111992.50;;;-145.11;48.49
63033;BME280;49121;38.932;-9.018;2023-01-27T14:22:40;111992.50;;;-145.11;50.12
63033;BME280;49121;38.932;-9.018;2023-01-27T14:24:57;111992.50;;;-145.11;50.22
63033;BME280;49121;38.932;-9.018;2023-01-27T14:27:16;111992.50;;;-145.11;49.51
63033;BME280;49121;38.932;-9.018;2023-01-27T14:34:14;111992.50;;;-145.11;51.24
63033;BME280;49121;38.932;-9.018;2023-01-27T14:36:31;111992.50;;;-145.11;51.05
63033;BME280;49121;38.932;-9.018;2023-01-27T14:39:16;111992.50;;;-145.11;49.70
63033;BME280;49121;38.932;-9.018;2023-01-27T14:45:59;111992.50;;;-145.11;52.37
63033;BME280;49121;38.932;-9.018;2023-01-27T14:48:47;111992.50;;;-145.11;51.76
63033;BME280;49121;38.932;-9.018;2023-01-27T14:53:14;111992.50;;;-145.11;51.47